createdAt,value
2023-03-10T00:00:31.018Z,36.53
2023-03-10T00:02:35.106Z,39.80
2023-03-10T00:04:39.950Z,39.92
2023-03-10T00:06:43.400Z,35.08
2023-03-10T00:08:47.137Z,37.13
2023-03-10T00:10:50.523Z,35.90
2023-03-10T00:12:53.947Z,35.63
2023-03-10T00:14:57.529Z,35.67
2023-03-10T00:17:00.973Z,37.88
2023-03-10T00:19:04.594Z,37.30
2023-03-10T00:21:14.648Z,36.70
2023-03-10T00:23:18.182Z,34.78
2023-03-10T00:25:21.615Z,34.70
2023-03-10T00:27:25.055Z,37.95
2023-03-10T00:29:28.559Z,36.70
2023-03-10T00:31:32.680Z,37.03
2023-03-10T00:33:37.235Z,38.30
2023-03-10T00:35:40.667Z,37.38
2023-03-10T00:37:45.505Z,38.30
2023-03-10T00:39:52.733Z,40.53
2023-03-10T00:41:56.108Z,37.83
2023-03-10T00:44:00.787Z,39.28
2023-03-10T00:46:04.286Z,41.00
2023-03-10T00:48:08.262Z,35.88
2023-03-10T00:50:13.380Z,38.78
2023-03-10T00:52:16.959Z,39.47
2023-03-10T00:54:21.831Z,38.42
2023-03-10T00:56:27.105Z,39.05
2023-03-10T00:58:31.755Z,41.50
2023-03-10T01:00:35.243Z,40.47
2023-03-10T01:02:39.090Z,37.83
2023-03-10T01:04:42.589Z,38.00
2023-03-10T01:06:47.772Z,38.72
2023-03-10T01:08:51.789Z,38.08
2023-03-10T01:10:56.644Z,38.55
2023-03-10T01:13:00.171Z,38.90
2023-03-10T01:15:03.620Z,37.35
2023-03-10T01:17:07.033Z,36.47
2023-03-10T01:19:10.505Z,39.75
2023-03-10T01:21:18.417Z,38.35
2023-03-10T01:23:23.839Z,38.38
2023-03-10T01:25:28.063Z,38.15
2023-03-10T01:27:32.913Z,37.60
2023-03-10T01:29:36.448Z,36.72
2023-03-10T01:31:42.089Z,36.58
2023-03-10T01:33:46.054Z,38.08
2023-03-10T01:35:49.571Z,37.13
2023-03-10T01:37:53.837Z,38.30
2023-03-10T01:39:57.232Z,40.40
2023-03-10T01:42:01.453Z,40.63
2023-03-10T01:44:07.220Z,40.65
2023-03-10T01:46:37.223Z,39.42
2023-03-10T01:48:44.573Z,36.88
2023-03-10T01:50:52.750Z,39.30
2023-03-10T01:52:58.586Z,40.75
2023-03-10T01:55:07.801Z,41.40
2023-03-10T01:57:12.746Z,38.58
2023-03-10T01:59:18.059Z,42.28
2023-03-10T02:01:21.851Z,38.55
2023-03-10T02:03:28.346Z,37.67
2023-03-10T02:05:33.542Z,37.08
2023-03-10T02:07:38.118Z,38.55
2023-03-10T02:09:45.461Z,39.65
2023-03-10T02:11:50.662Z,35.35
2023-03-10T02:13:55.698Z,34.60
2023-03-10T02:16:00.767Z,36.25
2023-03-10T02:18:07.056Z,36.33
2023-03-10T02:20:21.145Z,35.53
2023-03-10T02:22:24.615Z,34.67
2023-03-10T02:24:35.902Z,32.45
2023-03-10T02:26:49.393Z,36.55
2023-03-10T02:28:58.621Z,36.00
2023-03-10T02:31:03.613Z,33.90
2023-03-10T02:33:12.580Z,35.50
2023-03-10T02:35:16.768Z,37.33
2023-03-10T02:37:30.199Z,36.20
2023-03-10T02:39:33.667Z,34.30
2023-03-10T02:41:40.087Z,33.05
2023-03-10T02:43:49.127Z,34.28
2023-03-10T02:46:02.702Z,33.45
2023-03-10T02:48:08.258Z,32.60
2023-03-10T02:50:14.828Z,31.77
2023-03-10T02:52:26.762Z,33.53
2023-03-10T02:54:30.262Z,31.85
2023-03-10T02:56:34.358Z,31.20
2023-03-10T02:58:38.190Z,34.30
2023-03-10T03:00:46.006Z,33.53
2023-03-10T03:02:52.060Z,35.58
2023-03-10T03:04:56.730Z,33.22
2023-03-10T03:07:01.561Z,32.53
2023-03-10T03:09:05.338Z,31.45
2023-03-10T03:11:09.101Z,30.38
2023-03-10T03:13:13.196Z,31.30
2023-03-10T03:15:17.412Z,32.88
2023-03-10T03:17:21.040Z,30.40
2023-03-10T03:19:28.668Z,32.10
2023-03-10T03:21:33.485Z,32.30
2023-03-10T03:23:38.160Z,30.20
2023-03-10T03:25:44.093Z,30.70
2023-03-10T03:27:51.203Z,32.65
2023-03-10T03:29:54.943Z,34.13
2023-03-10T03:31:58.634Z,30.77
2023-03-10T03:34:06.940Z,30.60
2023-03-10T03:36:12.255Z,33.83
2023-03-10T03:38:16.108Z,32.45
2023-03-10T03:40:20.485Z,31.95
2023-03-10T03:42:24.027Z,34.63
2023-03-10T03:44:31.924Z,34.97
2023-03-10T03:46:36.364Z,33.90
2023-03-10T03:48:40.755Z,37.05
2023-03-10T03:50:45.649Z,34.70
2023-03-10T03:53:03.494Z,38.40
2023-03-10T03:55:09.205Z,35.70
2023-03-10T03:57:14.393Z,35.90
2023-03-10T03:59:18.150Z,38.65
2023-03-10T04:01:21.715Z,35.55
2023-03-10T04:03:29.847Z,37.58
2023-03-10T04:05:33.878Z,39.15
2023-03-10T04:07:40.141Z,36.72
2023-03-10T04:09:46.924Z,34.72
2023-03-10T04:11:50.477Z,37.63
2023-03-10T04:13:54.591Z,35.85
2023-03-10T04:15:59.262Z,38.65
2023-03-10T04:18:08.402Z,38.88
2023-03-10T04:20:13.579Z,35.05
2023-03-10T04:22:19.820Z,35.00
2023-03-10T04:24:24.761Z,36.63
2023-03-10T04:26:30.810Z,41.90
2023-03-10T04:28:34.186Z,34.38
2023-03-10T04:30:37.711Z,37.17
2023-03-10T04:32:41.296Z,36.22
2023-03-10T04:34:45.731Z,38.97
2023-03-10T04:36:49.674Z,36.88
2023-03-10T04:38:53.161Z,39.47
2023-03-10T04:40:59.732Z,37.85
2023-03-10T04:43:09.090Z,37.17
2023-03-10T04:45:13.471Z,39.13
2023-03-10T04:47:17.591Z,38.47
2023-03-10T04:49:21.197Z,38.25
2023-03-10T04:51:25.666Z,39.88
2023-03-10T04:53:32.611Z,36.50
2023-03-10T04:55:36.871Z,38.72
2023-03-10T04:57:41.790Z,40.15
2023-03-10T04:59:46.691Z,37.97
2023-03-10T05:01:52.509Z,37.42
2023-03-10T05:03:56.421Z,42.40
2023-03-10T05:06:00.845Z,40.60
2023-03-10T05:08:05.282Z,39.92
2023-03-10T05:10:09.949Z,40.28
2023-03-10T05:12:13.835Z,40.22
2023-03-10T05:14:18.617Z,37.78
2023-03-10T05:16:24.401Z,43.85
2023-03-10T05:18:29.687Z,38.28
2023-03-10T05:20:34.101Z,42.17
2023-03-10T05:22:39.394Z,43.47
2023-03-10T05:24:45.090Z,39.25
2023-03-10T05:26:49.170Z,41.22
2023-03-10T05:28:52.656Z,41.67
2023-03-10T05:31:09.314Z,33.97
2023-03-10T05:33:14.135Z,43.40
2023-03-10T05:35:17.888Z,39.50
2023-03-10T05:37:22.314Z,44.95
2023-03-10T05:39:26.958Z,42.15
2023-03-10T05:41:32.681Z,40.42
2023-03-10T05:43:37.083Z,43.75
2023-03-10T05:45:41.052Z,40.92
2023-03-10T05:47:46.583Z,45.13
2023-03-10T05:49:53.992Z,40.42
2023-03-10T05:51:57.750Z,46.10
2023-03-10T05:54:01.192Z,46.17
2023-03-10T05:56:07.422Z,45.83
2023-03-10T05:58:10.819Z,45.92
2023-03-10T06:00:16.769Z,46.28
2023-03-10T06:02:30.716Z,46.92
2023-03-10T06:04:34.129Z,44.63
2023-03-10T06:06:39.039Z,43.70
2023-03-10T06:08:43.162Z,42.25
2023-03-10T06:10:46.693Z,43.60
2023-03-10T06:12:50.104Z,43.15
2023-03-10T06:14:53.699Z,44.40
2023-03-10T06:16:57.822Z,43.10
2023-03-10T06:19:01.214Z,42.63
2023-03-10T06:21:06.794Z,40.88
2023-03-10T06:23:11.800Z,43.55
2023-03-10T06:25:15.374Z,41.60
2023-03-10T06:27:18.984Z,47.42
2023-03-10T06:29:22.400Z,38.45
2023-03-10T06:31:26.149Z,39.72
2023-03-10T06:33:30.253Z,38.78
2023-03-10T06:35:33.907Z,38.70
2023-03-10T06:37:37.324Z,37.90
2023-03-10T06:39:42.383Z,38.92
2023-03-10T06:41:45.792Z,37.13
2023-03-10T06:43:49.634Z,36.17
2023-03-10T06:45:53.270Z,35.38
2023-03-10T06:47:57.106Z,35.00
2023-03-10T06:50:03.566Z,33.80
2023-03-10T06:52:07.476Z,34.85
2023-03-10T06:54:10.863Z,33.92
2023-03-10T06:56:18.006Z,34.50
2023-03-10T06:58:21.467Z,32.72
2023-03-10T07:00:25.206Z,32.92
2023-03-10T07:02:28.642Z,32.45
2023-03-10T07:04:32.095Z,32.47
2023-03-10T07:06:35.653Z,30.92
2023-03-10T07:08:39.281Z,33.22
2023-03-10T07:10:42.709Z,32.88
2023-03-10T07:12:54.695Z,28.77
2023-03-10T07:14:58.102Z,29.02
2023-03-10T07:17:01.731Z,26.77
2023-03-10T07:19:05.280Z,27.77
2023-03-10T07:21:09.815Z,31.73
2023-03-10T07:23:13.988Z,29.92
2023-03-10T07:25:17.621Z,29.35
2023-03-10T07:27:23.775Z,31.00
2023-03-10T07:29:28.676Z,27.10
2023-03-10T07:31:32.821Z,25.73
2023-03-10T07:33:36.803Z,28.60
2023-03-10T07:35:40.332Z,27.50
2023-03-10T07:37:43.768Z,26.90
2023-03-10T07:39:47.287Z,27.90
2023-03-10T07:41:50.688Z,25.73
2023-03-10T07:43:55.694Z,29.48
2023-03-10T07:46:00.598Z,29.10
2023-03-10T07:48:04.072Z,27.83
2023-03-10T07:50:08.340Z,28.67
2023-03-10T07:52:11.748Z,26.25
2023-03-10T07:54:15.157Z,29.40
2023-03-10T07:56:18.589Z,27.50
2023-03-10T07:58:22.213Z,28.75
2023-03-10T08:00:25.662Z,27.83
2023-03-10T08:02:30.460Z,27.02
2023-03-10T08:04:34.130Z,26.75
2023-03-10T08:06:38.137Z,28.10
2023-03-10T08:08:41.636Z,29.95
2023-03-10T08:10:45.242Z,28.77
2023-03-10T08:12:48.679Z,28.88
2023-03-10T08:14:52.112Z,29.48
2023-03-10T08:16:56.825Z,27.35
2023-03-10T08:19:01.715Z,28.88
2023-03-10T08:21:06.765Z,25.63
2023-03-10T08:23:10.170Z,27.33
2023-03-10T08:25:13.722Z,26.60
2023-03-10T08:27:17.191Z,26.60
2023-03-10T08:29:20.731Z,28.60
2023-03-10T08:31:24.303Z,29.10
2023-03-10T08:33:28.800Z,28.10
2023-03-10T08:35:33.783Z,30.58
2023-03-10T08:37:37.729Z,27.23
2023-03-10T08:39:41.411Z,26.45
2023-03-10T08:41:49.408Z,27.48
2023-03-10T08:43:54.773Z,32.10
2023-03-10T08:45:58.184Z,28.02
2023-03-10T08:48:01.652Z,26.60
2023-03-10T08:50:06.053Z,26.75
2023-03-10T08:52:10.874Z,28.50
2023-03-10T08:54:17.758Z,26.20
2023-03-10T08:56:23.615Z,28.92
2023-03-10T08:58:27.307Z,25.33
2023-03-10T09:00:30.713Z,28.55
2023-03-10T09:02:34.627Z,25.20
2023-03-10T09:04:38.089Z,25.90
2023-03-10T09:06:41.879Z,27.27
2023-03-10T09:08:48.358Z,28.95
2023-03-10T09:10:51.964Z,26.08
2023-03-10T09:13:11.031Z,26.92
2023-03-10T09:15:16.631Z,29.83
2023-03-10T09:17:20.435Z,27.73
2023-03-10T09:19:24.249Z,26.42
2023-03-10T09:21:32.013Z,28.17
2023-03-10T09:23:36.658Z,27.02
2023-03-10T09:25:41.948Z,28.95
2023-03-10T09:27:46.723Z,26.15
2023-03-10T09:29:50.220Z,26.35
2023-03-10T09:31:53.722Z,29.15
2023-03-10T09:33:57.160Z,27.85
2023-03-10T09:36:07.476Z,30.80
2023-03-10T09:38:11.456Z,27.30
2023-03-10T09:40:18.739Z,28.45
2023-03-10T09:42:38.534Z,29.00
2023-03-10T09:44:50.526Z,26.48
2023-03-10T09:47:06.827Z,30.30
2023-03-10T09:49:17.824Z,28.98
2023-03-10T09:51:24.174Z,21.98
2023-03-10T09:53:41.398Z,30.80
2023-03-10T09:55:48.542Z,28.98
2023-03-10T09:57:55.781Z,31.13
2023-03-10T10:00:05.177Z,29.10
2023-03-10T10:02:18.009Z,32.45
2023-03-10T10:04:29.169Z,30.33
2023-03-10T10:06:40.322Z,31.80
2023-03-10T10:09:01.920Z,30.83
2023-03-10T10:11:17.237Z,33.33
2023-03-10T10:13:29.849Z,32.90
2023-03-10T10:15:48.207Z,34.63
2023-03-10T10:18:18.357Z,33.28
2023-03-10T10:20:34.176Z,32.88
2023-03-10T10:22:44.933Z,34.25
2023-03-10T10:25:16.329Z,34.60
2023-03-10T10:27:26.410Z,36.08
2023-03-10T10:29:39.583Z,34.78
2023-03-10T10:32:03.443Z,34.05
2023-03-10T10:34:23.393Z,36.15
2023-03-10T10:36:32.120Z,33.55
2023-03-10T10:38:41.034Z,34.72
2023-03-10T10:40:54.060Z,36.83
2023-03-10T10:43:01.652Z,35.08
2023-03-10T10:45:30.778Z,35.40
2023-03-10T10:47:51.462Z,36.03
2023-03-10T10:50:10.714Z,37.03
2023-03-10T10:52:27.361Z,35.55
2023-03-10T10:54:40.312Z,37.28
2023-03-10T10:56:57.198Z,35.10
2023-03-10T10:59:08.651Z,38.42
2023-03-10T11:01:17.972Z,32.45
2023-03-10T11:03:32.981Z,38.90
2023-03-10T11:05:38.737Z,35.15
2023-03-10T11:07:42.560Z,36.97
2023-03-10T11:09:46.050Z,38.67
2023-03-10T11:11:59.293Z,35.47
2023-03-10T11:14:14.759Z,37.70
2023-03-10T11:16:25.861Z,35.85
2023-03-10T11:18:35.378Z,35.00
2023-03-10T11:20:48.337Z,36.97
2023-03-10T11:23:00.172Z,36.65
2023-03-10T11:25:12.102Z,36.40
2023-03-10T11:27:21.879Z,36.72
2023-03-10T11:29:39.531Z,41.25
2023-03-10T11:31:53.718Z,36.17
2023-03-10T11:34:05.610Z,36.60
2023-03-10T11:36:24.462Z,35.03
2023-03-10T11:38:37.842Z,37.35
2023-03-10T11:40:48.777Z,35.40
2023-03-10T11:43:00.207Z,39.75
2023-03-10T11:45:22.992Z,39.65
2023-03-10T11:47:43.180Z,37.33
2023-03-10T11:49:55.618Z,34.97
2023-03-10T11:52:02.511Z,37.47
2023-03-10T11:54:15.340Z,35.45
2023-03-10T11:56:21.767Z,37.58
2023-03-10T11:58:30.265Z,36.67
2023-03-10T12:00:37.720Z,37.83
2023-03-10T12:02:49.512Z,41.40
2023-03-10T12:04:59.043Z,43.65
2023-03-10T12:07:08.136Z,41.60
2023-03-10T12:09:19.570Z,36.40
2023-03-10T12:11:27.235Z,33.20
2023-03-10T12:13:38.261Z,31.88
2023-03-10T12:15:42.246Z,34.95
2023-03-10T12:17:49.395Z,34.92
2023-03-10T12:20:26.928Z,34.40
2023-03-10T12:22:39.245Z,27.73
2023-03-10T12:24:45.704Z,30.63
2023-03-10T12:27:07.175Z,31.55
2023-03-10T12:29:34.751Z,29.58
2023-03-10T12:31:56.781Z,27.50
2023-03-10T12:34:15.337Z,30.88
2023-03-10T12:36:37.685Z,31.15
2023-03-10T12:38:45.690Z,31.00
2023-03-10T12:40:49.940Z,30.65
2023-03-10T12:42:53.415Z,30.98
2023-03-10T12:45:17.441Z,28.95
2023-03-10T12:47:44.772Z,28.50
2023-03-10T12:49:56.351Z,29.35
2023-03-10T12:54:16.647Z,27.73
2023-03-10T12:56:23.819Z,27.05
2023-03-10T12:58:28.968Z,28.63
2023-03-10T13:00:41.374Z,28.20
2023-03-10T13:02:50.929Z,27.02
2023-03-10T13:05:02.758Z,35.08
2023-03-10T13:09:22.027Z,27.55
2023-03-10T13:11:31.978Z,28.63
2023-03-10T13:13:38.995Z,32.67
2023-03-10T13:15:42.398Z,30.02
2023-03-10T13:17:45.881Z,28.90
2023-03-10T13:20:01.378Z,31.20
2023-03-10T13:22:05.953Z,26.55
2023-03-10T13:24:25.047Z,31.77
2023-03-10T13:26:28.888Z,27.13
2023-03-10T13:28:35.717Z,27.60
2023-03-10T13:30:39.257Z,27.20
2023-03-10T13:32:43.452Z,26.52
2023-03-10T13:34:47.234Z,27.45
2023-03-10T13:36:52.029Z,23.40
2023-03-10T13:38:56.501Z,25.80
2023-03-10T13:41:02.245Z,22.55
2023-03-10T13:43:08.155Z,24.08
2023-03-10T13:45:22.383Z,22.75
2023-03-10T13:47:28.310Z,25.38
2023-03-10T13:49:35.668Z,22.73
2023-03-10T13:51:39.261Z,22.13
2023-03-10T13:53:44.404Z,25.13
2023-03-10T13:55:47.849Z,24.75
2023-03-10T13:57:53.139Z,26.02
2023-03-10T13:59:58.731Z,28.15
2023-03-10T14:02:03.357Z,26.50
2023-03-10T14:04:09.616Z,24.88
2023-03-10T14:06:16.285Z,23.95
2023-03-10T14:08:22.317Z,23.52
2023-03-10T14:10:27.427Z,21.45
2023-03-10T14:12:38.780Z,22.52
2023-03-10T14:14:42.889Z,24.55
2023-03-10T14:16:53.869Z,24.92
2023-03-10T14:18:57.268Z,25.05
2023-03-10T14:21:24.994Z,26.38
2023-03-10T14:23:35.624Z,20.52
2023-03-10T14:25:42.591Z,23.80
2023-03-10T14:27:48.347Z,22.52
2023-03-10T14:29:53.499Z,22.38
2023-03-10T14:31:57.930Z,23.90
2023-03-10T14:34:01.545Z,22.48
2023-03-10T14:36:10.938Z,23.77
2023-03-10T14:38:14.548Z,23.63
2023-03-10T14:40:19.379Z,21.83
2023-03-10T14:42:30.255Z,21.02
2023-03-10T14:44:34.589Z,22.38
2023-03-10T14:46:38.272Z,22.85
2023-03-10T14:48:42.303Z,21.83
2023-03-10T14:50:46.445Z,23.50
2023-03-10T14:52:49.865Z,24.17
2023-03-10T14:54:53.385Z,22.42
2023-03-10T14:56:59.367Z,23.38
2023-03-10T14:59:06.693Z,25.17
2023-03-10T15:01:10.260Z,22.88
2023-03-10T15:03:14.515Z,22.55
2023-03-10T15:05:19.303Z,24.05
2023-03-10T15:07:22.951Z,26.30
2023-03-10T15:09:26.540Z,24.70
2023-03-10T15:11:36.864Z,23.50
2023-03-10T15:13:41.172Z,23.88
2023-03-10T15:15:48.178Z,26.27
2023-03-10T15:17:52.414Z,24.95
2023-03-10T15:19:58.224Z,23.05
2023-03-10T15:22:01.782Z,24.90
2023-03-10T15:24:07.647Z,25.48
2023-03-10T15:26:12.643Z,23.23
2023-03-10T15:28:16.275Z,22.63
2023-03-10T15:30:21.568Z,24.77
2023-03-10T15:32:26.410Z,23.23
2023-03-10T15:34:29.949Z,23.60
2023-03-10T15:36:33.489Z,22.23
2023-03-10T15:38:36.922Z,20.27
2023-03-10T15:40:40.303Z,21.50
2023-03-10T15:42:44.190Z,21.25
2023-03-10T15:44:49.413Z,22.10
2023-03-10T15:46:55.077Z,20.15
2023-03-10T15:49:00.916Z,22.40
2023-03-10T15:51:09.797Z,20.55
2023-03-10T15:53:13.844Z,26.35
2023-03-10T15:55:18.981Z,23.13
2023-03-10T15:57:22.486Z,22.23
2023-03-10T15:59:26.042Z,22.08
2023-03-10T16:01:29.753Z,22.25
2023-03-10T16:03:36.043Z,23.10
2023-03-10T16:05:49.133Z,22.48
2023-03-10T16:07:52.974Z,21.88
2023-03-10T16:09:56.710Z,22.40
2023-03-10T16:12:00.127Z,22.42
2023-03-10T16:14:03.702Z,21.83
2023-03-10T16:16:08.029Z,23.30
2023-03-10T16:18:11.538Z,21.40
2023-03-10T16:20:16.976Z,22.33
2023-03-10T16:22:22.070Z,22.55
2023-03-10T16:24:25.647Z,20.00
2023-03-10T16:26:29.825Z,19.08
2023-03-10T16:28:36.706Z,21.55
2023-03-10T16:30:43.351Z,20.90
2023-03-10T16:32:47.195Z,21.67
2023-03-10T16:34:50.627Z,22.60
2023-03-10T16:36:56.017Z,22.65
2023-03-10T16:39:01.005Z,23.35
2023-03-10T16:41:05.118Z,22.05
2023-03-10T16:43:08.547Z,20.90
2023-03-10T16:45:12.597Z,23.98
2023-03-10T16:47:18.004Z,21.42
2023-03-10T16:49:21.553Z,20.40
2023-03-10T16:51:28.373Z,21.30
2023-03-10T16:53:31.812Z,21.42
2023-03-10T16:55:36.613Z,19.63
2023-03-10T16:57:40.268Z,20.00
2023-03-10T16:59:44.774Z,23.17
2023-03-10T17:01:48.929Z,21.75
2023-03-10T17:03:52.823Z,22.33
2023-03-10T17:05:56.319Z,20.45
2023-03-10T17:08:02.737Z,20.80
2023-03-10T17:10:07.016Z,21.85
2023-03-10T17:12:11.965Z,24.98
2023-03-10T17:14:17.522Z,22.83
2023-03-10T17:16:23.569Z,23.00
2023-03-10T17:18:27.066Z,21.92
2023-03-10T17:20:30.607Z,23.77
2023-03-10T17:22:34.214Z,19.65
2023-03-10T17:24:37.632Z,20.83
2023-03-10T17:26:41.356Z,22.13
2023-03-10T17:28:47.759Z,22.23
2023-03-10T17:30:51.111Z,22.98
2023-03-10T17:32:54.515Z,23.50
2023-03-10T17:34:57.902Z,21.90
2023-03-10T17:37:01.709Z,24.70
2023-03-10T17:39:06.569Z,22.45
2023-03-10T17:41:11.911Z,20.90
2023-03-10T17:43:32.971Z,23.73
2023-03-10T17:45:38.901Z,22.58
2023-03-10T17:47:42.475Z,24.08
2023-03-10T17:49:45.809Z,23.55
2023-03-10T17:51:49.473Z,26.58
2023-03-10T17:53:54.311Z,24.17
2023-03-10T17:55:58.241Z,23.38
2023-03-10T17:58:01.752Z,25.75
2023-03-10T18:00:06.111Z,25.55
2023-03-10T18:02:16.869Z,29.63
2023-03-10T18:04:20.497Z,33.45
2023-03-10T18:06:25.622Z,31.73
2023-03-10T18:08:29.305Z,32.47
2023-03-10T18:10:34.555Z,27.65
2023-03-10T18:12:38.397Z,445.23
2023-03-10T18:14:41.869Z,338.17
2023-03-10T18:16:45.338Z,226.02
2023-03-10T18:18:50.779Z,40.67
2023-03-10T18:20:54.460Z,31.42
2023-03-10T18:22:58.072Z,29.90
2023-03-10T18:25:01.864Z,29.42
2023-03-10T18:27:05.356Z,29.55
2023-03-10T18:29:08.833Z,28.70
2023-03-10T18:31:18.589Z,29.75
2023-03-10T18:33:22.267Z,30.50
2023-03-10T18:35:27.251Z,29.02
2023-03-10T18:37:33.394Z,31.90
2023-03-10T18:39:38.162Z,27.95
2023-03-10T18:41:42.762Z,29.27
2023-03-10T18:43:46.196Z,27.17
2023-03-10T18:45:49.852Z,30.08
2023-03-10T18:47:53.406Z,25.75
2023-03-10T18:49:58.564Z,28.02
2023-03-10T18:52:03.403Z,29.80
2023-03-10T18:54:07.172Z,26.20
2023-03-10T18:56:11.637Z,27.50
2023-03-10T18:58:15.241Z,27.23
2023-03-10T19:00:20.555Z,31.10
2023-03-10T19:02:24.182Z,27.70
2023-03-10T19:04:27.752Z,27.38
2023-03-10T19:06:31.976Z,29.25
2023-03-10T19:08:38.237Z,31.58
2023-03-10T19:10:41.918Z,29.98
2023-03-10T19:12:45.437Z,32.97
2023-03-10T19:14:48.936Z,28.55
2023-03-10T19:16:52.436Z,31.75
2023-03-10T19:18:55.984Z,29.77
2023-03-10T19:21:00.950Z,34.28
2023-03-10T19:23:04.546Z,32.03
2023-03-10T19:25:13.063Z,36.75
2023-03-10T19:27:16.546Z,28.60
2023-03-10T19:29:20.128Z,28.38
2023-03-10T19:31:26.097Z,29.30
2023-03-10T19:33:29.625Z,26.17
2023-03-10T19:35:33.200Z,28.08
2023-03-10T19:37:37.068Z,29.65
2023-03-10T19:39:40.850Z,27.90
2023-03-10T19:41:45.985Z,27.35
2023-03-10T19:43:50.695Z,27.42
2023-03-10T19:46:00.722Z,25.90
2023-03-10T19:48:04.256Z,25.48
2023-03-10T19:50:10.203Z,24.58
2023-03-10T19:52:14.168Z,23.67
2023-03-10T19:54:17.870Z,27.05
2023-03-10T19:56:22.527Z,24.45
2023-03-10T19:58:27.552Z,23.85
2023-03-10T20:00:36.227Z,25.67
2023-03-10T20:02:42.421Z,25.48
2023-03-10T20:04:47.766Z,25.33
2023-03-10T20:06:51.289Z,23.20
2023-03-10T20:08:59.254Z,25.63
2023-03-10T20:11:04.202Z,28.67
2023-03-10T20:13:07.667Z,25.60
2023-03-10T20:15:12.598Z,27.48
2023-03-10T20:17:17.989Z,23.80
2023-03-10T20:19:23.049Z,25.88
2023-03-10T20:21:27.536Z,24.83
2023-03-10T20:23:31.135Z,24.23
2023-03-10T20:25:34.562Z,24.65
2023-03-10T20:27:38.509Z,27.80
2023-03-10T20:29:43.175Z,27.10
2023-03-10T20:31:48.106Z,24.15
2023-03-10T20:33:51.686Z,24.02
2023-03-10T20:35:55.512Z,23.17
2023-03-10T20:37:59.192Z,24.48
2023-03-10T20:40:02.837Z,22.05
2023-03-10T20:42:06.465Z,21.38
2023-03-10T20:44:14.568Z,23.60
2023-03-10T20:46:19.475Z,22.23
2023-03-10T20:48:24.677Z,22.40
2023-03-10T20:50:28.287Z,20.98
2023-03-10T20:52:34.022Z,18.95
2023-03-10T20:54:37.404Z,19.83
2023-03-10T20:56:40.894Z,21.85
2023-03-10T20:58:44.280Z,20.77
2023-03-10T21:00:48.417Z,23.75
2023-03-10T21:02:53.374Z,20.25
2023-03-10T21:04:58.257Z,20.65
2023-03-10T21:07:01.709Z,19.33
2023-03-10T21:09:06.872Z,18.15
2023-03-10T21:11:10.333Z,21.17
2023-03-10T21:13:13.801Z,18.48
2023-03-10T21:15:19.411Z,21.58
2023-03-10T21:17:23.253Z,22.73
2023-03-10T21:19:26.832Z,15.95
2023-03-10T21:21:34.538Z,19.17
2023-03-10T21:23:39.408Z,20.75
2023-03-10T21:25:43.723Z,18.38
2023-03-10T21:27:49.634Z,20.92
2023-03-10T21:29:53.098Z,16.90
2023-03-10T21:31:56.551Z,20.38
2023-03-10T21:34:00.017Z,17.30
2023-03-10T21:36:03.998Z,19.98
2023-03-10T21:38:08.796Z,17.88
2023-03-10T21:40:15.051Z,18.65
2023-03-10T21:42:18.762Z,20.23
2023-03-10T21:44:22.206Z,19.52
2023-03-10T21:46:27.056Z,18.80
2023-03-10T21:48:32.503Z,22.25
2023-03-10T21:50:36.230Z,18.20
2023-03-10T21:52:40.252Z,18.50
2023-03-10T21:54:45.129Z,22.65
2023-03-10T21:56:48.651Z,19.77
2023-03-10T21:58:55.869Z,19.80
2023-03-10T22:00:59.496Z,21.35
2023-03-10T22:03:03.708Z,20.05
2023-03-10T22:05:07.948Z,21.23
2023-03-10T22:07:11.542Z,20.00
2023-03-10T22:09:15.657Z,21.00
2023-03-10T22:11:20.764Z,19.80
2023-03-10T22:13:24.340Z,22.02
2023-03-10T22:15:28.607Z,20.23
2023-03-10T22:17:32.084Z,19.73
2023-03-10T22:19:35.648Z,19.88
2023-03-10T22:21:39.091Z,20.77
2023-03-10T22:23:43.803Z,20.63
2023-03-10T22:25:47.412Z,18.88
2023-03-10T22:27:54.758Z,22.17
2023-03-10T22:30:00.954Z,20.55
2023-03-10T22:32:04.895Z,24.30
2023-03-10T22:34:08.338Z,20.60
2023-03-10T22:36:14.000Z,19.27
2023-03-10T22:38:17.394Z,20.65
2023-03-10T22:40:22.853Z,19.40
2023-03-10T22:42:26.433Z,20.13
2023-03-10T22:44:36.339Z,20.15
2023-03-10T22:46:39.950Z,21.45
2023-03-10T22:48:44.484Z,19.85
2023-03-10T22:50:47.936Z,17.58
2023-03-10T22:52:51.685Z,17.85
2023-03-10T22:54:55.128Z,18.67
2023-03-10T22:56:58.746Z,20.70
2023-03-10T22:59:04.058Z,22.38
2023-03-10T23:01:09.144Z,19.75
2023-03-10T23:03:14.007Z,23.15
2023-03-10T23:05:18.821Z,19.65
2023-03-10T23:07:22.196Z,20.63
2023-03-10T23:09:25.592Z,21.65
2023-03-10T23:11:29.188Z,23.25
2023-03-10T23:13:32.601Z,16.95
2023-03-10T23:15:38.191Z,19.75
2023-03-10T23:17:42.983Z,20.88
2023-03-10T23:19:51.238Z,21.70
2023-03-10T23:21:54.573Z,22.35
2023-03-10T23:23:57.966Z,22.85
2023-03-10T23:26:01.395Z,24.27
2023-03-10T23:28:06.378Z,20.08
2023-03-10T23:30:11.164Z,25.30
2023-03-10T23:32:14.953Z,21.63
2023-03-10T23:34:19.783Z,23.67
2023-03-10T23:36:23.199Z,22.90
2023-03-10T23:38:27.440Z,22.77
2023-03-10T23:40:32.112Z,24.67
2023-03-10T23:42:37.175Z,24.33
2023-03-10T23:44:40.636Z,24.38
2023-03-10T23:46:43.991Z,26.55
2023-03-10T23:48:47.298Z,23.77
2023-03-10T23:50:52.498Z,22.17
2023-03-10T23:52:56.870Z,27.00
2023-03-10T23:55:00.531Z,24.00
2023-03-10T23:57:03.906Z,24.13
2023-03-10T23:59:07.346Z,25.77
